createdAt,value
2022-09-15T00:00:44.705Z,16.60
2022-09-15T00:03:34.361Z,16.60
2022-09-15T00:06:06.444Z,16.60
2022-09-15T00:08:36.175Z,16.60
2022-09-15T00:11:14.774Z,16.60
2022-09-15T00:13:44.048Z,16.60
2022-09-15T00:16:15.725Z,16.60
2022-09-15T00:18:46.875Z,16.60
2022-09-15T00:21:23.540Z,16.60
2022-09-15T00:23:51.612Z,16.60
2022-09-15T00:26:22.711Z,16.60
2022-09-15T00:28:51.319Z,16.60
2022-09-15T00:31:21.949Z,16.60
2022-09-15T00:33:51.600Z,16.60
2022-09-15T00:36:20.125Z,16.60
2022-09-15T00:38:48.431Z,16.60
2022-09-15T00:41:18.701Z,16.60
2022-09-15T00:43:48.267Z,16.60
2022-09-15T00:46:30.775Z,16.50
2022-09-15T00:49:18.912Z,16.50
2022-09-15T00:51:57.853Z,16.50
2022-09-15T00:54:31.438Z,16.50
2022-09-15T00:57:03.750Z,16.48
2022-09-15T00:59:42.331Z,16.50
2022-09-15T01:02:23.520Z,16.48
2022-09-15T01:04:57.389Z,16.48
2022-09-15T01:07:35.573Z,16.42
2022-09-15T01:10:26.527Z,16.46
2022-09-15T01:12:57.535Z,16.40
2022-09-15T01:19:46.659Z,16.40
2022-09-15T01:22:37.708Z,16.40
2022-09-15T01:25:41.999Z,16.40
2022-09-15T01:29:05.463Z,16.40
2022-09-15T01:32:22.274Z,16.40
2022-09-15T01:35:03.243Z,16.30
2022-09-15T01:37:34.807Z,16.30
2022-09-15T01:40:04.136Z,16.20
2022-09-15T01:42:32.583Z,16.20
2022-09-15T01:45:11.812Z,16.20
2022-09-15T01:47:39.910Z,16.20
2022-09-15T01:50:11.696Z,16.20
2022-09-15T01:52:46.731Z,16.20
2022-09-15T01:55:37.073Z,16.20
2022-09-15T01:58:04.935Z,16.20
2022-09-15T02:00:35.039Z,16.20
2022-09-15T02:03:19.316Z,16.20
2022-09-15T02:05:58.952Z,16.30
2022-09-15T02:08:44.786Z,16.30
2022-09-15T02:11:23.705Z,16.30
2022-09-15T02:14:13.446Z,16.26
2022-09-15T02:16:44.353Z,16.24
2022-09-15T02:19:21.487Z,16.26
2022-09-15T02:22:00.100Z,16.28
2022-09-15T02:24:37.160Z,16.20
2022-09-15T02:27:05.338Z,16.20
2022-09-15T02:29:33.620Z,16.24
2022-09-15T02:32:06.776Z,16.26
2022-09-15T02:34:37.689Z,16.30
2022-09-15T02:37:05.618Z,16.28
2022-09-15T02:39:36.955Z,16.24
2022-09-15T02:42:05.749Z,16.20
2022-09-15T02:44:33.314Z,16.20
2022-09-15T02:47:01.987Z,16.20
2022-09-15T02:49:29.955Z,16.20
2022-09-15T02:51:57.522Z,16.20
2022-09-15T02:54:25.281Z,16.20
2022-09-15T02:56:52.944Z,16.20
2022-09-15T02:59:20.505Z,16.20
2022-09-15T03:01:48.254Z,16.20
2022-09-15T03:04:16.550Z,16.16
2022-09-15T03:06:44.207Z,16.10
2022-09-15T03:09:13.296Z,16.10
2022-09-15T03:11:41.277Z,16.12
2022-09-15T03:14:09.346Z,16.10
2022-09-15T03:16:37.373Z,16.10
2022-09-15T03:19:24.022Z,16.14
2022-09-15T03:21:51.681Z,16.10
2022-09-15T03:24:19.752Z,16.10
2022-09-15T03:26:48.231Z,16.02
2022-09-15T03:29:16.099Z,16.00
2022-09-15T03:31:43.900Z,16.00
2022-09-15T03:34:12.141Z,16.00
2022-09-15T03:36:41.233Z,16.04
2022-09-15T03:39:11.429Z,16.00
2022-09-15T03:41:39.316Z,16.00
2022-09-15T03:44:07.191Z,16.00
2022-09-15T03:46:35.663Z,16.00
2022-09-15T03:49:03.448Z,16.00
2022-09-15T03:51:31.297Z,16.00
2022-09-15T03:53:59.162Z,16.00
2022-09-15T03:56:32.874Z,16.00
2022-09-15T03:59:02.386Z,16.00
2022-09-15T04:01:31.401Z,16.00
2022-09-15T04:03:59.439Z,16.00
2022-09-15T04:06:27.814Z,16.00
2022-09-15T04:08:55.783Z,16.00
2022-09-15T04:11:23.750Z,16.00
2022-09-15T04:13:52.781Z,16.00
2022-09-15T04:16:25.356Z,16.00
2022-09-15T04:18:53.190Z,16.00
2022-09-15T04:21:26.341Z,16.00
2022-09-15T04:23:54.757Z,15.98
2022-09-15T04:26:31.408Z,15.96
2022-09-15T04:29:03.928Z,15.98
2022-09-15T04:31:33.376Z,15.98
2022-09-15T04:34:02.021Z,16.00
2022-09-15T04:36:31.352Z,16.00
2022-09-15T04:38:58.963Z,16.00
2022-09-15T04:41:27.190Z,15.96
2022-09-15T04:43:55.302Z,16.00
2022-09-15T04:46:23.549Z,16.00
2022-09-15T04:48:51.752Z,16.00
2022-09-15T04:51:21.051Z,16.00
2022-09-15T04:53:49.058Z,16.00
2022-09-15T04:56:19.541Z,16.00
2022-09-15T04:58:52.952Z,16.00
2022-09-15T05:01:27.297Z,15.98
2022-09-15T05:03:55.643Z,15.94
2022-09-15T05:06:43.190Z,15.90
2022-09-15T05:09:12.899Z,15.92
2022-09-15T05:11:40.751Z,15.92
2022-09-15T05:14:10.063Z,16.00
2022-09-15T05:16:37.863Z,16.00
2022-09-15T05:19:09.161Z,16.00
2022-09-15T05:21:37.133Z,16.00
2022-09-15T05:24:06.228Z,16.00
2022-09-15T05:26:34.194Z,16.00
2022-09-15T05:29:02.198Z,15.92
2022-09-15T05:31:32.241Z,15.96
2022-09-15T05:34:04.141Z,15.98
2022-09-15T05:36:37.469Z,16.00
2022-09-15T05:39:09.193Z,15.98
2022-09-15T05:41:36.852Z,15.98
2022-09-15T05:44:04.723Z,16.00
2022-09-15T05:46:32.945Z,16.00
2022-09-15T05:49:01.373Z,16.00
2022-09-15T05:51:30.582Z,16.00
2022-09-15T05:53:58.432Z,16.00
2022-09-15T05:56:26.612Z,16.00
2022-09-15T05:58:54.271Z,16.00
2022-09-15T06:01:27.403Z,15.98
2022-09-15T06:03:55.843Z,15.90
2022-09-15T06:06:24.426Z,15.98
2022-09-15T06:08:58.963Z,16.00
2022-09-15T06:11:29.450Z,16.00
2022-09-15T06:14:03.336Z,16.00
2022-09-15T06:16:33.671Z,16.00
2022-09-15T06:19:01.579Z,16.00
2022-09-15T06:21:30.463Z,16.00
2022-09-15T06:24:00.582Z,15.90
2022-09-15T06:26:28.763Z,15.90
2022-09-15T06:29:02.173Z,15.90
2022-09-15T06:31:33.726Z,15.90
2022-09-15T06:34:08.702Z,15.90
2022-09-15T06:36:38.057Z,15.94
2022-09-15T06:39:06.113Z,16.00
2022-09-15T06:41:58.455Z,16.00
2022-09-15T06:44:23.252Z,16.00
2022-09-15T06:46:54.857Z,16.00
2022-09-15T06:49:22.871Z,16.00
2022-09-15T06:51:51.382Z,16.10
2022-09-15T06:54:19.533Z,16.12
2022-09-15T06:56:47.492Z,16.20
2022-09-15T06:59:16.486Z,16.30
2022-09-15T07:01:52.905Z,16.38
2022-09-15T07:04:21.623Z,16.48
2022-09-15T07:06:50.335Z,16.50
2022-09-15T07:09:18.762Z,16.50
2022-09-15T07:11:46.680Z,16.40
2022-09-15T07:14:14.545Z,16.30
2022-09-15T07:16:42.479Z,16.22
2022-09-15T07:19:13.652Z,16.16
2022-09-15T07:21:41.211Z,16.10
2022-09-15T07:24:10.511Z,16.10
2022-09-15T07:26:38.271Z,16.20
2022-09-15T07:29:06.902Z,16.30
2022-09-15T07:31:36.599Z,16.40
2022-09-15T07:34:04.744Z,16.50
2022-09-15T07:36:32.301Z,16.60
2022-09-15T07:39:00.167Z,16.60
2022-09-15T07:41:29.826Z,16.58
2022-09-15T07:43:59.344Z,16.60
2022-09-15T07:46:30.941Z,16.70
2022-09-15T07:49:02.904Z,16.80
2022-09-15T07:51:30.971Z,16.80
2022-09-15T07:53:58.841Z,16.82
2022-09-15T07:56:27.312Z,16.88
2022-09-15T07:58:55.183Z,16.90
2022-09-15T08:01:25.331Z,17.00
2022-09-15T08:03:53.260Z,17.00
2022-09-15T08:06:23.437Z,16.90
2022-09-15T08:08:55.111Z,16.90
2022-09-15T08:11:27.466Z,16.90
2022-09-15T08:13:55.628Z,16.88
2022-09-15T08:16:24.696Z,16.80
2022-09-15T08:18:54.292Z,16.90
2022-09-15T08:21:25.950Z,17.00
2022-09-15T08:23:58.725Z,17.10
2022-09-15T08:26:27.823Z,16.98
2022-09-15T08:28:57.744Z,17.00
2022-09-15T08:31:26.022Z,17.10
2022-09-15T08:33:54.873Z,17.10
2022-09-15T08:36:56.762Z,17.20
2022-09-15T08:39:25.262Z,17.30
2022-09-15T08:41:53.111Z,17.42
2022-09-15T08:44:49.672Z,17.52
2022-09-15T08:47:36.462Z,17.64
2022-09-15T08:50:41.213Z,17.62
2022-09-15T08:53:14.184Z,17.80
2022-09-15T08:55:55.335Z,17.90
2022-09-15T08:58:28.185Z,18.10
2022-09-15T09:01:10.707Z,18.20
2022-09-15T09:04:18.196Z,18.30
2022-09-15T09:07:14.486Z,18.28
2022-09-15T09:09:53.620Z,18.30
2022-09-15T09:12:55.272Z,18.40
2022-09-15T09:15:40.304Z,18.30
2022-09-15T09:18:52.422Z,18.30
2022-09-15T09:21:36.945Z,18.50
2022-09-15T09:24:08.961Z,18.60
2022-09-15T09:26:37.871Z,18.62
2022-09-15T09:29:18.577Z,18.80
2022-09-15T09:31:47.863Z,18.88
2022-09-15T09:34:44.472Z,18.80
2022-09-15T09:37:15.143Z,18.80
2022-09-15T09:39:43.162Z,18.80
2022-09-15T09:42:15.550Z,18.82
2022-09-15T09:44:46.636Z,18.90
2022-09-15T09:47:16.267Z,19.00
2022-09-15T09:49:50.350Z,19.10
2022-09-15T09:52:39.088Z,19.30
2022-09-15T09:55:19.414Z,19.42
2022-09-15T09:57:48.522Z,19.60
2022-09-15T10:00:36.551Z,19.60
2022-09-15T10:03:29.425Z,19.70
2022-09-15T10:06:08.782Z,19.58
2022-09-15T10:08:36.804Z,19.40
2022-09-15T10:11:08.095Z,19.20
2022-09-15T10:13:36.327Z,19.10
2022-09-15T10:16:06.146Z,19.10
2022-09-15T10:18:38.343Z,19.00
2022-09-15T10:21:08.424Z,19.02
2022-09-15T10:23:36.399Z,18.90
2022-09-15T10:26:27.537Z,18.88
2022-09-15T10:29:13.341Z,18.90
2022-09-15T10:31:42.007Z,18.88
2022-09-15T10:34:30.302Z,18.84
2022-09-15T10:37:18.880Z,18.90
2022-09-15T10:39:57.538Z,18.90
2022-09-15T10:42:59.071Z,19.00
2022-09-15T10:45:39.921Z,19.08
2022-09-15T10:48:30.539Z,19.00
2022-09-15T10:51:58.809Z,19.20
2022-09-15T10:54:41.214Z,19.70
2022-09-15T10:57:38.781Z,19.98
2022-09-15T11:00:12.036Z,20.22
2022-09-15T11:03:23.781Z,20.40
2022-09-15T11:06:00.743Z,20.50
2022-09-15T11:08:54.753Z,20.40
2022-09-15T11:12:07.051Z,20.20
2022-09-15T11:15:02.651Z,20.10
2022-09-15T11:18:07.784Z,20.00
2022-09-15T11:21:05.791Z,20.00
2022-09-15T11:23:52.193Z,20.10
2022-09-15T11:26:33.153Z,20.02
2022-09-15T11:29:25.692Z,20.00
2022-09-15T11:35:26.451Z,20.00
2022-09-15T11:37:56.584Z,19.90
2022-09-15T11:40:26.867Z,19.94
2022-09-15T11:43:27.526Z,19.90
2022-09-15T11:45:56.813Z,19.84
2022-09-15T11:48:43.747Z,20.00
2022-09-15T11:51:11.701Z,20.20
2022-09-15T11:54:17.359Z,20.10
2022-09-15T11:56:45.462Z,20.08
2022-09-15T11:59:27.395Z,20.10
2022-09-15T12:02:20.315Z,20.20
2022-09-15T12:05:07.145Z,20.30
2022-09-15T12:07:58.432Z,20.44
2022-09-15T12:10:49.972Z,20.60
2022-09-15T12:13:23.923Z,20.60
2022-09-15T12:15:52.109Z,20.70
2022-09-15T12:18:42.909Z,20.70
2022-09-15T12:21:56.133Z,20.70
2022-09-15T12:24:29.640Z,20.70
2022-09-15T12:27:03.022Z,20.80
2022-09-15T12:29:42.610Z,20.72
2022-09-15T12:32:28.708Z,20.52
2022-09-15T12:35:13.814Z,20.40
2022-09-15T12:37:53.220Z,20.30
2022-09-15T12:40:40.158Z,20.40
2022-09-15T12:43:11.562Z,20.40
2022-09-15T12:45:41.741Z,20.38
2022-09-15T12:48:17.824Z,20.36
2022-09-15T12:50:59.782Z,20.30
2022-09-15T12:53:46.394Z,20.40
2022-09-15T12:56:26.573Z,20.50
2022-09-15T12:58:55.154Z,20.70
2022-09-15T13:01:25.260Z,20.70
2022-09-15T13:03:55.128Z,20.50
2022-09-15T13:06:37.916Z,20.60
2022-09-15T13:09:06.084Z,20.64
2022-09-15T13:11:39.130Z,20.60
2022-09-15T13:14:33.505Z,20.60
2022-09-15T13:17:24.187Z,20.70
2022-09-15T13:19:54.582Z,20.70
2022-09-15T13:22:31.317Z,20.66
2022-09-15T13:25:13.670Z,20.80
2022-09-15T13:27:59.660Z,20.90
2022-09-15T13:30:33.284Z,21.00
2022-09-15T13:40:34.327Z,21.00
2022-09-15T13:43:19.841Z,20.80
2022-09-15T13:46:08.573Z,20.52
2022-09-15T13:49:23.151Z,20.40
2022-09-15T13:52:34.735Z,20.30
2022-09-15T13:55:16.382Z,20.30
2022-09-15T14:00:59.028Z,20.30
2022-09-15T14:03:28.632Z,20.20
2022-09-15T14:05:56.532Z,20.30
2022-09-15T14:08:32.346Z,20.50
2022-09-15T14:11:08.213Z,20.60
2022-09-15T14:13:37.780Z,20.70
2022-09-15T14:16:29.473Z,20.60
2022-09-15T14:18:58.516Z,20.44
2022-09-15T14:21:32.575Z,20.30
2022-09-15T14:24:05.935Z,20.30
2022-09-15T14:26:35.391Z,20.30
2022-09-15T14:29:05.837Z,20.20
2022-09-15T14:31:40.664Z,20.02
2022-09-15T14:34:30.924Z,20.00
2022-09-15T14:37:12.634Z,19.92
2022-09-15T14:39:48.988Z,19.90
2022-09-15T14:42:23.013Z,19.90
2022-09-15T14:47:45.793Z,19.94
2022-09-15T14:50:20.026Z,19.90
2022-09-15T14:52:55.234Z,19.80
2022-09-15T14:55:33.232Z,19.70
2022-09-15T14:58:16.084Z,19.70
2022-09-15T15:01:09.646Z,19.60
2022-09-15T15:03:58.663Z,19.50
2022-09-15T15:07:01.441Z,19.50
2022-09-15T15:09:47.255Z,19.40
2022-09-15T15:12:23.742Z,19.48
2022-09-15T15:14:54.133Z,19.50
2022-09-15T15:17:31.993Z,19.50
2022-09-15T15:20:28.579Z,19.50
2022-09-15T15:23:36.376Z,19.40
2022-09-15T15:26:38.032Z,19.40
2022-09-15T15:29:48.083Z,19.40
2022-09-15T15:32:21.341Z,19.40
2022-09-15T15:34:55.761Z,19.36
2022-09-15T15:37:28.832Z,19.30
2022-09-15T15:39:59.064Z,19.20
2022-09-15T15:42:29.874Z,19.20
2022-09-15T15:45:03.155Z,19.22
2022-09-15T15:47:32.892Z,19.24
2022-09-15T15:50:13.228Z,19.20
2022-09-15T15:52:43.670Z,19.20
2022-09-15T15:55:14.988Z,19.10
2022-09-15T15:57:43.172Z,19.10
2022-09-15T16:00:30.139Z,19.02
2022-09-15T16:02:58.062Z,19.00
2022-09-15T16:05:27.133Z,18.90
2022-09-15T16:07:56.669Z,18.80
2022-09-15T16:10:25.588Z,18.70
2022-09-15T16:12:53.494Z,18.60
2022-09-15T16:15:21.900Z,18.50
2022-09-15T16:17:49.843Z,18.40
2022-09-15T16:20:24.384Z,18.30
2022-09-15T16:22:52.664Z,18.20
2022-09-15T16:25:41.411Z,18.10
2022-09-15T16:28:09.983Z,18.00
2022-09-15T16:30:37.653Z,17.90
2022-09-15T16:33:05.511Z,17.80
2022-09-15T16:35:51.234Z,17.70
2022-09-15T16:38:20.502Z,17.60
2022-09-15T16:40:49.482Z,17.54
2022-09-15T16:43:20.706Z,17.50
2022-09-15T16:45:49.664Z,17.46
2022-09-15T16:48:18.724Z,17.40
2022-09-15T16:51:16.861Z,17.34
2022-09-15T16:53:36.162Z,17.30
2022-09-15T16:56:04.123Z,17.26
2022-09-15T16:58:31.900Z,17.20
2022-09-15T17:01:00.801Z,17.20
2022-09-15T17:03:29.192Z,17.10
2022-09-15T17:05:59.320Z,17.00
2022-09-15T17:08:29.922Z,17.00
2022-09-15T17:11:02.602Z,16.90
2022-09-15T17:13:32.754Z,16.80
2022-09-15T17:16:01.575Z,16.80
2022-09-15T17:18:29.812Z,16.70
2022-09-15T17:20:58.733Z,16.70
2022-09-15T17:23:30.944Z,16.64
2022-09-15T17:26:01.232Z,16.60
2022-09-15T17:28:31.343Z,16.60
2022-09-15T17:31:01.306Z,16.50
2022-09-15T17:33:30.010Z,16.50
2022-09-15T17:35:58.909Z,16.40
2022-09-15T17:38:27.859Z,16.40
2022-09-15T17:40:56.643Z,16.40
2022-09-15T17:43:27.580Z,16.32
2022-09-15T17:45:55.595Z,16.30
2022-09-15T17:48:24.141Z,16.30
2022-09-15T17:50:52.637Z,16.26
2022-09-15T17:53:23.311Z,16.20
2022-09-15T17:55:51.768Z,16.20
2022-09-15T17:58:19.813Z,16.20
2022-09-15T18:00:48.598Z,16.20
2022-09-15T18:03:36.956Z,16.20
2022-09-15T18:06:07.362Z,16.20
2022-09-15T18:08:36.280Z,16.18
2022-09-15T18:11:05.255Z,16.16
2022-09-15T18:13:33.843Z,16.10
2022-09-15T18:16:12.568Z,16.16
2022-09-15T18:18:41.059Z,16.12
2022-09-15T18:21:12.837Z,16.10
2022-09-15T18:23:44.918Z,16.10
2022-09-15T18:26:12.934Z,16.10
2022-09-15T18:28:41.305Z,16.10
2022-09-15T18:31:11.744Z,16.10
2022-09-15T18:33:40.227Z,16.10
2022-09-15T18:36:09.097Z,16.10
2022-09-15T18:38:37.403Z,16.08
2022-09-15T18:41:09.776Z,16.10
2022-09-15T18:43:37.725Z,16.06
2022-09-15T18:46:06.014Z,16.02
2022-09-15T18:48:33.982Z,16.08
2022-09-15T18:51:02.245Z,16.00
2022-09-15T18:53:30.709Z,16.00
2022-09-15T18:55:58.686Z,16.00
2022-09-15T18:58:26.557Z,16.00
2022-09-15T19:01:00.268Z,16.00
2022-09-15T19:03:28.955Z,16.00
2022-09-15T19:06:07.476Z,16.00
2022-09-15T19:08:36.956Z,16.00
2022-09-15T19:11:05.356Z,16.00
2022-09-15T19:13:35.505Z,15.96
2022-09-15T19:16:08.248Z,15.90
2022-09-15T19:18:36.924Z,15.90
2022-09-15T19:21:06.763Z,15.90
2022-09-15T19:23:36.046Z,15.90
2022-09-15T19:26:06.904Z,15.90
2022-09-15T19:28:35.880Z,15.90
2022-09-15T19:31:04.000Z,15.90
2022-09-15T19:33:32.533Z,15.90
2022-09-15T19:36:26.894Z,15.90
2022-09-15T19:38:55.645Z,15.84
2022-09-15T19:41:24.143Z,15.80
2022-09-15T19:43:52.216Z,15.80
2022-09-15T19:46:24.238Z,15.82
2022-09-15T19:48:53.420Z,15.80
2022-09-15T19:51:25.145Z,15.80
2022-09-15T19:53:56.727Z,15.80
2022-09-15T19:56:27.287Z,15.80
2022-09-15T19:58:56.421Z,15.80
2022-09-15T20:01:29.768Z,15.80
2022-09-15T20:03:59.427Z,15.78
2022-09-15T20:06:32.291Z,15.78
2022-09-15T20:09:01.026Z,15.72
2022-09-15T20:11:29.714Z,15.70
2022-09-15T20:13:58.602Z,15.70
2022-09-15T20:16:27.496Z,15.70
2022-09-15T20:18:55.990Z,15.70
2022-09-15T20:21:50.383Z,15.70
2022-09-15T20:24:20.380Z,15.70
2022-09-15T20:26:48.980Z,15.70
2022-09-15T20:29:17.446Z,15.70
2022-09-15T20:31:46.751Z,15.60
2022-09-15T20:34:15.153Z,15.60
2022-09-15T20:36:43.690Z,15.60
2022-09-15T20:39:14.326Z,15.50
2022-09-15T20:41:45.006Z,15.50
2022-09-15T20:44:14.036Z,15.46
2022-09-15T20:46:42.545Z,15.40
2022-09-15T20:49:11.232Z,15.38
2022-09-15T20:51:39.687Z,15.30
2022-09-15T20:54:08.083Z,15.30
2022-09-15T20:56:36.290Z,15.22
2022-09-15T20:59:04.999Z,15.20
2022-09-15T21:01:37.405Z,15.20
2022-09-15T21:04:08.533Z,15.10
2022-09-15T21:06:36.943Z,15.10
2022-09-15T21:09:05.588Z,15.10
2022-09-15T21:11:34.114Z,15.00
2022-09-15T21:14:02.495Z,15.00
2022-09-15T21:16:31.306Z,15.00
2022-09-15T21:18:59.553Z,14.90
2022-09-15T21:21:31.159Z,14.90
2022-09-15T21:24:07.326Z,14.80
2022-09-15T21:26:58.078Z,14.80
2022-09-15T21:29:28.087Z,14.70
2022-09-15T21:31:58.276Z,14.60
2022-09-15T21:34:26.546Z,14.60
2022-09-15T21:36:55.223Z,14.50
2022-09-15T21:39:23.581Z,14.50
2022-09-15T21:41:58.173Z,14.50
2022-09-15T21:44:26.950Z,14.42
2022-09-15T21:46:55.337Z,14.40
2022-09-15T21:49:25.210Z,14.40
2022-09-15T21:51:53.761Z,14.40
2022-09-15T21:54:22.842Z,14.32
2022-09-15T21:56:51.764Z,14.30
2022-09-15T21:59:21.662Z,14.30
2022-09-15T22:01:51.354Z,14.30
2022-09-15T22:04:20.282Z,14.20
2022-09-15T22:06:50.158Z,14.20
2022-09-15T22:09:21.695Z,14.20
2022-09-15T22:11:49.884Z,14.12
2022-09-15T22:14:18.464Z,14.10
2022-09-15T22:16:47.203Z,14.10
2022-09-15T22:19:15.671Z,14.06
2022-09-15T22:21:43.633Z,14.00
2022-09-15T22:24:13.100Z,14.00
2022-09-15T22:26:42.578Z,14.00
2022-09-15T22:29:11.393Z,14.00
2022-09-15T22:31:39.502Z,14.00
2022-09-15T22:34:07.932Z,13.94
2022-09-15T22:36:36.212Z,13.90
2022-09-15T22:39:05.724Z,13.90
2022-09-15T22:41:37.715Z,13.86
2022-09-15T22:44:18.733Z,13.80
2022-09-15T22:46:49.455Z,13.80
2022-09-15T22:49:18.088Z,13.70
2022-09-15T22:51:46.665Z,13.70
2022-09-15T22:54:15.144Z,13.70
2022-09-15T22:56:43.110Z,13.68
2022-09-15T22:59:11.801Z,13.64
2022-09-15T23:01:39.728Z,13.60
2022-09-15T23:04:07.531Z,13.60
2022-09-15T23:06:35.601Z,13.60
2022-09-15T23:09:08.951Z,13.60
2022-09-15T23:11:39.563Z,13.60
2022-09-15T23:14:15.035Z,13.58
2022-09-15T23:16:43.339Z,13.52
2022-09-15T23:19:15.212Z,13.50
2022-09-15T23:21:43.483Z,13.50
2022-09-15T23:24:14.175Z,13.50
2022-09-15T23:26:41.775Z,13.44
2022-09-15T23:29:09.869Z,13.40
2022-09-15T23:31:37.688Z,13.40
2022-09-15T23:34:05.890Z,13.40
2022-09-15T23:36:34.101Z,13.30
2022-09-15T23:39:02.022Z,13.30
2022-09-15T23:41:30.097Z,13.24
2022-09-15T23:43:59.700Z,13.20
2022-09-15T23:46:27.506Z,13.20
2022-09-15T23:48:55.591Z,13.20
2022-09-15T23:51:26.060Z,13.12
2022-09-15T23:53:53.893Z,13.10
2022-09-15T23:56:21.900Z,13.10
2022-09-15T23:58:49.772Z,13.10
